Aberdeen Regional Airport Aberdeen US
ICAO: KABR
IATA: ABR
Category: Medium
Scheduled Services: Yes

Elevation: 1302 ft
TransAlt. 18000 ft.

Airport Communications:
ASOS:125.875
MINNEAPOLIS CNTR:120.6
CTAF:122.7
HURON RDO:122.4
UNICOM:122.95

KABR Zoom In..

If Map Doesn't Load, Click Here

Runways:

(A) RW 13 length 6901 ft width 100 ft
---- / hdg 128

(B) RW 17 length 5500 ft width 100 ft
---- / hdg 173

(C) RW 31 length 6901 ft width 100 ft
ILS 109.90 / hdg 308

(D) RW 35 length 5500 ft width 100 ft
---- / hdg 353

Location; KABR
Day. 21 / Time. 15.53 Zulu
* Altimeter: 30.30
* Temperature: 09° c. 48.2°f.
* Wind from: 350° Speed 11 kn.
Dewpoint: 04° c.
Visibility: 10 Statute Miles.
Clouds: Few 2300 ft.
Clouds: Broken 2900 ft.
Clouds: Broken 3700 ft.

KABR 211553Z AUTO 35011KT 10SM FEW023 BKN029 BKN037 09/04 A3030 RMK AO2 SLP266 T00940044


Wind From 350°
Speed 11 kn.

 
 
jpsmedia.com for Web Design worldairports.se 2018   terms of use